sensor_id;sensor_type;location;lat;lon;timestamp;P1;durP1;ratioP1;P2;durP2;ratioP2
66667;SDS011;57205;51.438;-2.006;2023-07-02T00:02:15;23.98;;;9.07;;
66667;SDS011;57205;51.438;-2.006;2023-07-02T00:04:42;25.95;;;8.98;;
66667;SDS011;57205;51.438;-2.006;2023-07-02T00:07:08;19.05;;;8.25;;
66667;SDS011;57205;51.438;-2.006;2023-07-02T00:09:33;25.05;;;9.15;;
66667;SDS011;57205;51.438;-2.006;2023-07-02T00:11:59;27.75;;;10.50;;
66667;SDS011;57205;51.438;-2.006;2023-07-02T00:14:24;29.35;;;8.98;;
66667;SDS011;57205;51.438;-2.006;2023-07-02T00:20:11;25.42;;;9.80;;
66667;SDS011;57205;51.438;-2.006;2023-07-02T00:22:40;26.63;;;10.93;;
66667;SDS011;57205;51.438;-2.006;2023-07-02T00:25:09;22.23;;;8.57;;
66667;SDS011;57205;51.438;-2.006;2023-07-02T00:27:35;21.50;;;9.05;;
66667;SDS011;57205;51.438;-2.006;2023-07-02T00:30:02;27.58;;;8.95;;
66667;SDS011;57205;51.438;-2.006;2023-07-02T00:32:28;25.42;;;9.30;;
66667;SDS011;57205;51.438;-2.006;2023-07-02T00:34:53;25.45;;;8.95;;
66667;SDS011;57205;51.438;-2.006;2023-07-02T00:37:19;25.67;;;9.13;;
66667;SDS011;57205;51.438;-2.006;2023-07-02T00:39:44;20.98;;;8.52;;
66667;SDS011;57205;51.438;-2.006;2023-07-02T00:42:09;31.25;;;9.13;;
66667;SDS011;57205;51.438;-2.006;2023-07-02T00:44:36;23.25;;;9.10;;
66667;SDS011;57205;51.438;-2.006;2023-07-02T00:47:09;27.25;;;8.98;;
66667;SDS011;57205;51.438;-2.006;2023-07-02T00:49:34;22.48;;;8.70;;
66667;SDS011;57205;51.438;-2.006;2023-07-02T00:52:00;26.30;;;8.82;;
66667;SDS011;57205;51.438;-2.006;2023-07-02T00:54:29;21.23;;;8.45;;
66667;SDS011;57205;51.438;-2.006;2023-07-02T00:56:56;24.63;;;8.15;;
66667;SDS011;57205;51.438;-2.006;2023-07-02T00:59:21;22.02;;;8.90;;
66667;SDS011;57205;51.438;-2.006;2023-07-02T01:01:47;23.27;;;8.68;;
66667;SDS011;57205;51.438;-2.006;2023-07-02T01:04:16;20.73;;;9.05;;
66667;SDS011;57205;51.438;-2.006;2023-07-02T01:06:43;19.25;;;9.02;;
66667;SDS011;57205;51.438;-2.006;2023-07-02T01:09:08;27.60;;;9.18;;
66667;SDS011;57205;51.438;-2.006;2023-07-02T01:11:36;24.80;;;9.93;;
66667;SDS011;57205;51.438;-2.006;2023-07-02T01:14:10;25.02;;;8.88;;
66667;SDS011;57205;51.438;-2.006;2023-07-02T01:16:40;27.13;;;8.90;;
66667;SDS011;57205;51.438;-2.006;2023-07-02T01:22:16;21.73;;;9.02;;
66667;SDS011;57205;51.438;-2.006;2023-07-02T01:24:42;22.98;;;8.90;;
66667;SDS011;57205;51.438;-2.006;2023-07-02T01:27:08;20.15;;;8.23;;
66667;SDS011;57205;51.438;-2.006;2023-07-02T01:29:35;22.52;;;8.23;;
66667;SDS011;57205;51.438;-2.006;2023-07-02T01:32:02;27.63;;;10.05;;
66667;SDS011;57205;51.438;-2.006;2023-07-02T01:34:28;26.85;;;9.07;;
66667;SDS011;57205;51.438;-2.006;2023-07-02T01:36:54;21.33;;;8.10;;
66667;SDS011;57205;51.438;-2.006;2023-07-02T01:39:19;21.92;;;9.90;;
66667;SDS011;57205;51.438;-2.006;2023-07-02T01:41:49;29.70;;;9.80;;
66667;SDS011;57205;51.438;-2.006;2023-07-02T01:44:21;22.80;;;9.10;;
66667;SDS011;57205;51.438;-2.006;2023-07-02T01:46:48;29.27;;;9.45;;
66667;SDS011;57205;51.438;-2.006;2023-07-02T01:49:19;25.75;;;9.18;;
66667;SDS011;57205;51.438;-2.006;2023-07-02T01:51:55;23.60;;;9.07;;
66667;SDS011;57205;51.438;-2.006;2023-07-02T01:54:24;24.38;;;9.15;;
66667;SDS011;57205;51.438;-2.006;2023-07-02T01:59:39;21.98;;;9.48;;
66667;SDS011;57205;51.438;-2.006;2023-07-02T02:02:04;24.00;;;9.35;;
66667;SDS011;57205;51.438;-2.006;2023-07-02T02:04:30;24.58;;;8.32;;
66667;SDS011;57205;51.438;-2.006;2023-07-02T02:06:55;24.83;;;8.73;;
66667;SDS011;57205;51.438;-2.006;2023-07-02T02:09:21;20.73;;;8.93;;
66667;SDS011;57205;51.438;-2.006;2023-07-02T02:11:50;21.90;;;9.13;;
66667;SDS011;57205;51.438;-2.006;2023-07-02T02:14:17;24.30;;;9.00;;
66667;SDS011;57205;51.438;-2.006;2023-07-02T02:16:43;19.77;;;8.35;;
66667;SDS011;57205;51.438;-2.006;2023-07-02T02:19:12;23.15;;;9.25;;
66667;SDS011;57205;51.438;-2.006;2023-07-02T02:21:39;23.20;;;9.10;;
66667;SDS011;57205;51.438;-2.006;2023-07-02T02:24:05;21.42;;;9.35;;
66667;SDS011;57205;51.438;-2.006;2023-07-02T02:26:32;26.05;;;9.30;;
66667;SDS011;57205;51.438;-2.006;2023-07-02T02:28:58;20.83;;;9.80;;
66667;SDS011;57205;51.438;-2.006;2023-07-02T02:31:23;31.55;;;10.32;;
66667;SDS011;57205;51.438;-2.006;2023-07-02T02:33:49;20.50;;;8.82;;
66667;SDS011;57205;51.438;-2.006;2023-07-02T02:36:15;24.75;;;8.88;;
66667;SDS011;57205;51.438;-2.006;2023-07-02T02:38:42;23.40;;;9.55;;
66667;SDS011;57205;51.438;-2.006;2023-07-02T02:41:07;24.63;;;8.82;;
66667;SDS011;57205;51.438;-2.006;2023-07-02T02:43:33;24.40;;;8.93;;
66667;SDS011;57205;51.438;-2.006;2023-07-02T02:45:59;21.42;;;8.52;;
66667;SDS011;57205;51.438;-2.006;2023-07-02T02:48:24;25.15;;;9.07;;
66667;SDS011;57205;51.438;-2.006;2023-07-02T02:50:50;28.73;;;9.38;;
66667;SDS011;57205;51.438;-2.006;2023-07-02T02:53:16;22.88;;;8.68;;
66667;SDS011;57205;51.438;-2.006;2023-07-02T02:55:41;24.05;;;9.30;;
66667;SDS011;57205;51.438;-2.006;2023-07-02T02:58:07;25.70;;;9.20;;
66667;SDS011;57205;51.438;-2.006;2023-07-02T03:00:32;21.20;;;8.05;;
66667;SDS011;57205;51.438;-2.006;2023-07-02T03:03:00;18.58;;;9.00;;
66667;SDS011;57205;51.438;-2.006;2023-07-02T03:05:25;21.67;;;9.40;;
66667;SDS011;57205;51.438;-2.006;2023-07-02T03:07:51;22.98;;;8.25;;
66667;SDS011;57205;51.438;-2.006;2023-07-02T03:10:17;18.55;;;8.13;;
66667;SDS011;57205;51.438;-2.006;2023-07-02T03:12:42;24.35;;;8.85;;
66667;SDS011;57205;51.438;-2.006;2023-07-02T03:15:08;27.30;;;8.82;;
66667;SDS011;57205;51.438;-2.006;2023-07-02T03:17:34;20.50;;;7.65;;
66667;SDS011;57205;51.438;-2.006;2023-07-02T03:20:00;19.42;;;7.85;;
66667;SDS011;57205;51.438;-2.006;2023-07-02T03:22:25;27.83;;;8.20;;
66667;SDS011;57205;51.438;-2.006;2023-07-02T03:24:50;22.73;;;8.02;;
66667;SDS011;57205;51.438;-2.006;2023-07-02T03:27:16;22.35;;;8.35;;
66667;SDS011;57205;51.438;-2.006;2023-07-02T03:29:41;16.85;;;7.53;;
66667;SDS011;57205;51.438;-2.006;2023-07-02T03:32:07;23.88;;;8.00;;
66667;SDS011;57205;51.438;-2.006;2023-07-02T03:34:33;21.40;;;6.72;;
66667;SDS011;57205;51.438;-2.006;2023-07-02T03:36:58;18.98;;;7.20;;
66667;SDS011;57205;51.438;-2.006;2023-07-02T03:39:23;22.88;;;7.07;;
66667;SDS011;57205;51.438;-2.006;2023-07-02T03:41:49;22.83;;;7.25;;
66667;SDS011;57205;51.438;-2.006;2023-07-02T03:44:14;23.33;;;7.70;;
66667;SDS011;57205;51.438;-2.006;2023-07-02T03:46:40;21.23;;;9.13;;
66667;SDS011;57205;51.438;-2.006;2023-07-02T03:49:05;20.50;;;7.68;;
66667;SDS011;57205;51.438;-2.006;2023-07-02T03:51:31;18.92;;;6.28;;
66667;SDS011;57205;51.438;-2.006;2023-07-02T03:53:58;24.85;;;8.25;;
66667;SDS011;57205;51.438;-2.006;2023-07-02T03:56:24;16.45;;;6.63;;
66667;SDS011;57205;51.438;-2.006;2023-07-02T03:58:50;17.80;;;6.40;;
66667;SDS011;57205;51.438;-2.006;2023-07-02T04:01:15;22.00;;;7.22;;
66667;SDS011;57205;51.438;-2.006;2023-07-02T04:03:50;19.45;;;7.25;;
66667;SDS011;57205;51.438;-2.006;2023-07-02T04:06:17;24.00;;;7.15;;
66667;SDS011;57205;51.438;-2.006;2023-07-02T04:08:44;20.63;;;6.60;;
66667;SDS011;57205;51.438;-2.006;2023-07-02T04:11:10;21.13;;;7.47;;
66667;SDS011;57205;51.438;-2.006;2023-07-02T04:13:36;18.08;;;7.45;;
66667;SDS011;57205;51.438;-2.006;2023-07-02T04:16:02;26.98;;;6.97;;
66667;SDS011;57205;51.438;-2.006;2023-07-02T04:18:29;19.35;;;6.38;;
66667;SDS011;57205;51.438;-2.006;2023-07-02T04:20:55;22.50;;;6.78;;
66667;SDS011;57205;51.438;-2.006;2023-07-02T04:23:21;15.68;;;7.13;;
66667;SDS011;57205;51.438;-2.006;2023-07-02T04:25:46;14.98;;;6.50;;
66667;SDS011;57205;51.438;-2.006;2023-07-02T04:28:13;17.90;;;6.60;;
66667;SDS011;57205;51.438;-2.006;2023-07-02T04:30:38;16.70;;;6.65;;
66667;SDS011;57205;51.438;-2.006;2023-07-02T04:33:05;17.92;;;6.10;;
66667;SDS011;57205;51.438;-2.006;2023-07-02T04:35:31;24.25;;;7.88;;
66667;SDS011;57205;51.438;-2.006;2023-07-02T04:37:57;17.55;;;6.78;;
66667;SDS011;57205;51.438;-2.006;2023-07-02T04:40:23;25.20;;;7.30;;
66667;SDS011;57205;51.438;-2.006;2023-07-02T04:42:49;19.88;;;6.63;;
66667;SDS011;57205;51.438;-2.006;2023-07-02T04:45:22;22.52;;;6.30;;
66667;SDS011;57205;51.438;-2.006;2023-07-02T04:47:49;15.38;;;5.75;;
66667;SDS011;57205;51.438;-2.006;2023-07-02T04:50:15;15.35;;;8.10;;
66667;SDS011;57205;51.438;-2.006;2023-07-02T04:52:41;15.93;;;6.57;;
66667;SDS011;57205;51.438;-2.006;2023-07-02T04:55:07;14.25;;;5.90;;
66667;SDS011;57205;51.438;-2.006;2023-07-02T04:57:33;17.65;;;6.20;;
66667;SDS011;57205;51.438;-2.006;2023-07-02T04:59:58;15.35;;;6.05;;
66667;SDS011;57205;51.438;-2.006;2023-07-02T05:02:24;18.88;;;6.10;;
66667;SDS011;57205;51.438;-2.006;2023-07-02T05:04:49;18.55;;;6.28;;
66667;SDS011;57205;51.438;-2.006;2023-07-02T05:07:18;14.70;;;6.03;;
66667;SDS011;57205;51.438;-2.006;2023-07-02T05:09:43;13.77;;;5.57;;
66667;SDS011;57205;51.438;-2.006;2023-07-02T05:12:09;16.90;;;4.85;;
66667;SDS011;57205;51.438;-2.006;2023-07-02T05:14:34;14.60;;;5.38;;
66667;SDS011;57205;51.438;-2.006;2023-07-02T05:17:00;15.25;;;5.38;;
66667;SDS011;57205;51.438;-2.006;2023-07-02T05:19:26;12.93;;;5.22;;
66667;SDS011;57205;51.438;-2.006;2023-07-02T05:21:51;12.15;;;5.15;;
66667;SDS011;57205;51.438;-2.006;2023-07-02T05:24:17;14.35;;;4.95;;
66667;SDS011;57205;51.438;-2.006;2023-07-02T05:26:42;18.98;;;5.22;;
66667;SDS011;57205;51.438;-2.006;2023-07-02T05:29:08;11.18;;;4.88;;
66667;SDS011;57205;51.438;-2.006;2023-07-02T05:31:33;10.45;;;4.47;;
66667;SDS011;57205;51.438;-2.006;2023-07-02T05:34:01;17.00;;;4.43;;
66667;SDS011;57205;51.438;-2.006;2023-07-02T05:36:27;10.45;;;4.32;;
66667;SDS011;57205;51.438;-2.006;2023-07-02T05:38:53;14.40;;;5.03;;
66667;SDS011;57205;51.438;-2.006;2023-07-02T05:41:22;11.82;;;4.30;;
66667;SDS011;57205;51.438;-2.006;2023-07-02T05:43:48;17.17;;;4.80;;
66667;SDS011;57205;51.438;-2.006;2023-07-02T05:46:14;11.93;;;4.00;;
66667;SDS011;57205;51.438;-2.006;2023-07-02T05:48:41;15.98;;;4.68;;
66667;SDS011;57205;51.438;-2.006;2023-07-02T05:51:08;9.75;;;4.03;;
66667;SDS011;57205;51.438;-2.006;2023-07-02T05:53:33;9.60;;;4.25;;
66667;SDS011;57205;51.438;-2.006;2023-07-02T05:55:59;10.55;;;4.20;;
66667;SDS011;57205;51.438;-2.006;2023-07-02T05:58:25;10.43;;;4.55;;
66667;SDS011;57205;51.438;-2.006;2023-07-02T06:00:50;10.48;;;4.35;;
66667;SDS011;57205;51.438;-2.006;2023-07-02T06:03:17;10.80;;;3.90;;
66667;SDS011;57205;51.438;-2.006;2023-07-02T06:05:48;10.77;;;4.30;;
66667;SDS011;57205;51.438;-2.006;2023-07-02T06:08:15;8.32;;;3.42;;
66667;SDS011;57205;51.438;-2.006;2023-07-02T06:10:41;8.73;;;3.65;;
66667;SDS011;57205;51.438;-2.006;2023-07-02T06:13:07;12.80;;;4.50;;
66667;SDS011;57205;51.438;-2.006;2023-07-02T06:15:32;11.27;;;4.45;;
66667;SDS011;57205;51.438;-2.006;2023-07-02T06:17:58;9.85;;;4.43;;
66667;SDS011;57205;51.438;-2.006;2023-07-02T06:20:23;15.32;;;4.43;;
66667;SDS011;57205;51.438;-2.006;2023-07-02T06:22:49;9.40;;;4.28;;
66667;SDS011;57205;51.438;-2.006;2023-07-02T06:25:14;10.60;;;3.75;;
66667;SDS011;57205;51.438;-2.006;2023-07-02T06:27:40;10.55;;;4.07;;
66667;SDS011;57205;51.438;-2.006;2023-07-02T06:30:05;9.38;;;4.15;;
66667;SDS011;57205;51.438;-2.006;2023-07-02T06:32:31;11.80;;;4.57;;
66667;SDS011;57205;51.438;-2.006;2023-07-02T06:34:57;13.07;;;4.45;;
66667;SDS011;57205;51.438;-2.006;2023-07-02T06:37:23;13.30;;;4.47;;
66667;SDS011;57205;51.438;-2.006;2023-07-02T06:39:48;7.75;;;3.90;;
66667;SDS011;57205;51.438;-2.006;2023-07-02T06:42:13;9.13;;;4.05;;
66667;SDS011;57205;51.438;-2.006;2023-07-02T06:47:47;11.02;;;3.92;;
66667;SDS011;57205;51.438;-2.006;2023-07-02T06:50:12;8.60;;;4.03;;
66667;SDS011;57205;51.438;-2.006;2023-07-02T06:52:38;14.07;;;4.45;;
66667;SDS011;57205;51.438;-2.006;2023-07-02T06:58:10;8.98;;;4.05;;
66667;SDS011;57205;51.438;-2.006;2023-07-02T07:00:36;11.05;;;4.93;;
66667;SDS011;57205;51.438;-2.006;2023-07-02T07:03:02;7.95;;;3.85;;
66667;SDS011;57205;51.438;-2.006;2023-07-02T07:05:29;9.13;;;4.00;;
66667;SDS011;57205;51.438;-2.006;2023-07-02T07:07:58;8.75;;;3.85;;
66667;SDS011;57205;51.438;-2.006;2023-07-02T07:10:27;10.85;;;4.22;;
66667;SDS011;57205;51.438;-2.006;2023-07-02T07:12:53;7.85;;;3.50;;
66667;SDS011;57205;51.438;-2.006;2023-07-02T07:15:18;10.63;;;4.03;;
66667;SDS011;57205;51.438;-2.006;2023-07-02T07:17:44;9.80;;;3.97;;
66667;SDS011;57205;51.438;-2.006;2023-07-02T07:20:09;11.13;;;4.70;;
66667;SDS011;57205;51.438;-2.006;2023-07-02T07:22:35;9.80;;;4.13;;
66667;SDS011;57205;51.438;-2.006;2023-07-02T07:25:01;9.45;;;4.25;;
66667;SDS011;57205;51.438;-2.006;2023-07-02T07:27:26;9.50;;;4.40;;
66667;SDS011;57205;51.438;-2.006;2023-07-02T07:29:51;12.85;;;4.43;;
66667;SDS011;57205;51.438;-2.006;2023-07-02T07:35:33;8.90;;;3.72;;
66667;SDS011;57205;51.438;-2.006;2023-07-02T07:37:59;8.13;;;3.80;;
66667;SDS011;57205;51.438;-2.006;2023-07-02T07:43:46;9.45;;;3.85;;
66667;SDS011;57205;51.438;-2.006;2023-07-02T07:46:11;9.45;;;3.72;;
66667;SDS011;57205;51.438;-2.006;2023-07-02T07:48:37;10.38;;;3.53;;
66667;SDS011;57205;51.438;-2.006;2023-07-02T07:51:05;10.95;;;3.70;;
66667;SDS011;57205;51.438;-2.006;2023-07-02T07:53:30;12.82;;;3.72;;
66667;SDS011;57205;51.438;-2.006;2023-07-02T07:55:56;11.18;;;3.85;;
66667;SDS011;57205;51.438;-2.006;2023-07-02T07:58:22;10.45;;;4.07;;
66667;SDS011;57205;51.438;-2.006;2023-07-02T08:00:48;10.45;;;3.30;;
66667;SDS011;57205;51.438;-2.006;2023-07-02T08:03:13;12.38;;;3.25;;
66667;SDS011;57205;51.438;-2.006;2023-07-02T08:05:39;8.52;;;3.55;;
66667;SDS011;57205;51.438;-2.006;2023-07-02T08:08:18;9.60;;;4.65;;
66667;SDS011;57205;51.438;-2.006;2023-07-02T08:10:43;7.18;;;3.17;;
66667;SDS011;57205;51.438;-2.006;2023-07-02T08:13:10;12.73;;;3.72;;
66667;SDS011;57205;51.438;-2.006;2023-07-02T08:15:35;10.45;;;3.50;;
66667;SDS011;57205;51.438;-2.006;2023-07-02T08:20:49;6.05;;;2.30;;
66667;SDS011;57205;51.438;-2.006;2023-07-02T08:23:15;6.78;;;2.50;;
66667;SDS011;57205;51.438;-2.006;2023-07-02T08:25:40;8.60;;;2.63;;
66667;SDS011;57205;51.438;-2.006;2023-07-02T08:28:06;9.07;;;2.80;;
66667;SDS011;57205;51.438;-2.006;2023-07-02T08:30:31;7.57;;;2.63;;
66667;SDS011;57205;51.438;-2.006;2023-07-02T08:32:56;6.85;;;2.42;;
66667;SDS011;57205;51.438;-2.006;2023-07-02T08:35:22;5.13;;;1.90;;
66667;SDS011;57205;51.438;-2.006;2023-07-02T08:37:47;8.70;;;2.50;;
66667;SDS011;57205;51.438;-2.006;2023-07-02T08:40:17;6.50;;;2.15;;
66667;SDS011;57205;51.438;-2.006;2023-07-02T08:42:47;6.57;;;2.50;;
66667;SDS011;57205;51.438;-2.006;2023-07-02T08:45:16;8.73;;;3.78;;
66667;SDS011;57205;51.438;-2.006;2023-07-02T08:47:44;6.22;;;2.10;;
66667;SDS011;57205;51.438;-2.006;2023-07-02T08:50:13;6.47;;;2.15;;
66667;SDS011;57205;51.438;-2.006;2023-07-02T08:52:39;7.15;;;2.80;;
66667;SDS011;57205;51.438;-2.006;2023-07-02T08:55:04;14.20;;;2.70;;
66667;SDS011;57205;51.438;-2.006;2023-07-02T08:57:30;6.07;;;2.13;;
66667;SDS011;57205;51.438;-2.006;2023-07-02T08:59:56;6.25;;;1.95;;
66667;SDS011;57205;51.438;-2.006;2023-07-02T09:02:33;7.70;;;2.90;;
66667;SDS011;57205;51.438;-2.006;2023-07-02T09:04:59;7.10;;;1.98;;
66667;SDS011;57205;51.438;-2.006;2023-07-02T09:07:27;10.52;;;1.90;;
66667;SDS011;57205;51.438;-2.006;2023-07-02T09:09:53;5.80;;;2.03;;
66667;SDS011;57205;51.438;-2.006;2023-07-02T09:12:28;6.20;;;2.13;;
66667;SDS011;57205;51.438;-2.006;2023-07-02T09:15:03;8.15;;;2.38;;
66667;SDS011;57205;51.438;-2.006;2023-07-02T09:17:32;8.88;;;2.70;;
66667;SDS011;57205;51.438;-2.006;2023-07-02T09:20:00;4.85;;;2.20;;
66667;SDS011;57205;51.438;-2.006;2023-07-02T09:22:28;4.40;;;1.77;;
66667;SDS011;57205;51.438;-2.006;2023-07-02T09:24:55;8.70;;;2.72;;
66667;SDS011;57205;51.438;-2.006;2023-07-02T09:30:10;10.25;;;2.25;;
66667;SDS011;57205;51.438;-2.006;2023-07-02T09:32:38;10.85;;;2.65;;
66667;SDS011;57205;51.438;-2.006;2023-07-02T09:35:04;8.45;;;2.67;;
66667;SDS011;57205;51.438;-2.006;2023-07-02T09:37:31;6.10;;;1.77;;
66667;SDS011;57205;51.438;-2.006;2023-07-02T09:39:57;8.77;;;2.75;;
66667;SDS011;57205;51.438;-2.006;2023-07-02T09:42:24;7.57;;;2.55;;
66667;SDS011;57205;51.438;-2.006;2023-07-02T09:44:54;5.25;;;2.30;;
66667;SDS011;57205;51.438;-2.006;2023-07-02T09:47:21;8.00;;;2.33;;
66667;SDS011;57205;51.438;-2.006;2023-07-02T09:52:23;6.97;;;2.70;;
66667;SDS011;57205;51.438;-2.006;2023-07-02T09:54:49;7.93;;;2.60;;
66667;SDS011;57205;51.438;-2.006;2023-07-02T09:57:14;9.25;;;2.30;;
66667;SDS011;57205;51.438;-2.006;2023-07-02T09:59:40;18.08;;;5.95;;
66667;SDS011;57205;51.438;-2.006;2023-07-02T10:02:07;15.50;;;5.70;;
66667;SDS011;57205;51.438;-2.006;2023-07-02T10:07:06;6.55;;;2.92;;
66667;SDS011;57205;51.438;-2.006;2023-07-02T10:12:23;11.17;;;3.00;;
66667;SDS011;57205;51.438;-2.006;2023-07-02T10:14:57;10.50;;;4.35;;
66667;SDS011;57205;51.438;-2.006;2023-07-02T10:19:56;9.50;;;2.40;;
66667;SDS011;57205;51.438;-2.006;2023-07-02T10:22:23;9.95;;;2.53;;
66667;SDS011;57205;51.438;-2.006;2023-07-02T10:24:55;11.30;;;2.75;;
66667;SDS011;57205;51.438;-2.006;2023-07-02T10:27:48;7.72;;;2.70;;
66667;SDS011;57205;51.438;-2.006;2023-07-02T10:30:13;8.52;;;2.80;;
66667;SDS011;57205;51.438;-2.006;2023-07-02T10:32:40;7.07;;;3.10;;
66667;SDS011;57205;51.438;-2.006;2023-07-02T10:37:40;13.55;;;2.67;;
66667;SDS011;57205;51.438;-2.006;2023-07-02T10:40:06;11.02;;;2.83;;
66667;SDS011;57205;51.438;-2.006;2023-07-02T10:42:44;9.35;;;2.28;;
66667;SDS011;57205;51.438;-2.006;2023-07-02T10:45:53;7.75;;;2.63;;
66667;SDS011;57205;51.438;-2.006;2023-07-02T10:48:11;10.45;;;3.20;;
66667;SDS011;57205;51.438;-2.006;2023-07-02T10:50:37;9.95;;;2.45;;
66667;SDS011;57205;51.438;-2.006;2023-07-02T10:53:02;7.85;;;2.55;;
66667;SDS011;57205;51.438;-2.006;2023-07-02T10:55:35;8.75;;;2.67;;
66667;SDS011;57205;51.438;-2.006;2023-07-02T10:58:04;12.65;;;2.78;;
66667;SDS011;57205;51.438;-2.006;2023-07-02T11:00:30;8.25;;;2.97;;
66667;SDS011;57205;51.438;-2.006;2023-07-02T11:02:56;9.15;;;2.78;;
66667;SDS011;57205;51.438;-2.006;2023-07-02T11:05:23;7.63;;;2.90;;
66667;SDS011;57205;51.438;-2.006;2023-07-02T11:07:48;8.13;;;2.65;;
66667;SDS011;57205;51.438;-2.006;2023-07-02T11:10:21;13.32;;;3.10;;
66667;SDS011;57205;51.438;-2.006;2023-07-02T11:12:48;8.68;;;2.42;;
66667;SDS011;57205;51.438;-2.006;2023-07-02T11:15:14;10.70;;;2.95;;
66667;SDS011;57205;51.438;-2.006;2023-07-02T11:17:42;8.85;;;3.08;;
66667;SDS011;57205;51.438;-2.006;2023-07-02T11:20:08;7.07;;;2.97;;
66667;SDS011;57205;51.438;-2.006;2023-07-02T11:22:35;10.73;;;2.60;;
66667;SDS011;57205;51.438;-2.006;2023-07-02T11:25:09;12.55;;;3.10;;
66667;SDS011;57205;51.438;-2.006;2023-07-02T11:27:47;9.00;;;2.85;;
66667;SDS011;57205;51.438;-2.006;2023-07-02T11:30:12;13.27;;;2.67;;
66667;SDS011;57205;51.438;-2.006;2023-07-02T11:32:51;7.70;;;2.15;;
66667;SDS011;57205;51.438;-2.006;2023-07-02T11:35:19;9.63;;;2.33;;
66667;SDS011;57205;51.438;-2.006;2023-07-02T11:37:46;8.57;;;2.40;;
66667;SDS011;57205;51.438;-2.006;2023-07-02T11:40:14;8.82;;;2.60;;
66667;SDS011;57205;51.438;-2.006;2023-07-02T11:42:42;8.07;;;2.15;;
66667;SDS011;57205;51.438;-2.006;2023-07-02T11:45:09;9.52;;;2.47;;
66667;SDS011;57205;51.438;-2.006;2023-07-02T11:47:34;10.32;;;3.08;;
66667;SDS011;57205;51.438;-2.006;2023-07-02T11:50:00;8.80;;;2.42;;
66667;SDS011;57205;51.438;-2.006;2023-07-02T11:52:26;8.20;;;2.10;;
66667;SDS011;57205;51.438;-2.006;2023-07-02T11:54:51;9.23;;;2.20;;
66667;SDS011;57205;51.438;-2.006;2023-07-02T11:57:20;15.23;;;2.35;;
66667;SDS011;57205;51.438;-2.006;2023-07-02T11:59:47;6.03;;;2.17;;
66667;SDS011;57205;51.438;-2.006;2023-07-02T12:02:12;6.43;;;2.17;;
66667;SDS011;57205;51.438;-2.006;2023-07-02T12:04:38;11.95;;;3.00;;
66667;SDS011;57205;51.438;-2.006;2023-07-02T12:07:04;9.40;;;2.00;;
66667;SDS011;57205;51.438;-2.006;2023-07-02T12:09:32;8.80;;;2.50;;
66667;SDS011;57205;51.438;-2.006;2023-07-02T12:11:57;5.43;;;1.80;;
66667;SDS011;57205;51.438;-2.006;2023-07-02T12:14:23;9.43;;;3.15;;
66667;SDS011;57205;51.438;-2.006;2023-07-02T12:16:48;13.15;;;2.92;;
66667;SDS011;57205;51.438;-2.006;2023-07-02T12:22:36;8.90;;;3.20;;
66667;SDS011;57205;51.438;-2.006;2023-07-02T12:25:01;9.85;;;2.10;;
66667;SDS011;57205;51.438;-2.006;2023-07-02T12:27:27;7.93;;;2.35;;
66667;SDS011;57205;51.438;-2.006;2023-07-02T12:29:52;5.85;;;1.88;;
66667;SDS011;57205;51.438;-2.006;2023-07-02T12:32:18;7.28;;;2.42;;
66667;SDS011;57205;51.438;-2.006;2023-07-02T12:34:43;7.88;;;2.38;;
66667;SDS011;57205;51.438;-2.006;2023-07-02T12:37:09;6.57;;;2.35;;
66667;SDS011;57205;51.438;-2.006;2023-07-02T12:39:34;9.50;;;2.55;;
66667;SDS011;57205;51.438;-2.006;2023-07-02T12:42:00;5.88;;;1.95;;
66667;SDS011;57205;51.438;-2.006;2023-07-02T12:44:25;13.63;;;2.30;;
66667;SDS011;57205;51.438;-2.006;2023-07-02T12:46:51;10.43;;;2.17;;
66667;SDS011;57205;51.438;-2.006;2023-07-02T12:49:16;8.05;;;2.45;;
66667;SDS011;57205;51.438;-2.006;2023-07-02T12:51:42;8.85;;;2.38;;
66667;SDS011;57205;51.438;-2.006;2023-07-02T12:54:07;6.72;;;2.08;;
66667;SDS011;57205;51.438;-2.006;2023-07-02T12:56:33;12.25;;;2.22;;
66667;SDS011;57205;51.438;-2.006;2023-07-02T12:58:58;9.43;;;2.28;;
66667;SDS011;57205;51.438;-2.006;2023-07-02T13:01:24;5.93;;;1.80;;
66667;SDS011;57205;51.438;-2.006;2023-07-02T13:03:49;7.63;;;2.42;;
66667;SDS011;57205;51.438;-2.006;2023-07-02T13:06:15;7.45;;;1.90;;
66667;SDS011;57205;51.438;-2.006;2023-07-02T13:08:42;7.10;;;1.92;;
66667;SDS011;57205;51.438;-2.006;2023-07-02T13:11:07;8.48;;;2.00;;
66667;SDS011;57205;51.438;-2.006;2023-07-02T13:13:34;6.50;;;2.35;;
66667;SDS011;57205;51.438;-2.006;2023-07-02T13:18:51;6.95;;;2.28;;
66667;SDS011;57205;51.438;-2.006;2023-07-02T13:21:20;7.43;;;1.92;;
66667;SDS011;57205;51.438;-2.006;2023-07-02T13:23:46;8.50;;;2.25;;
66667;SDS011;57205;51.438;-2.006;2023-07-02T13:29:13;5.82;;;2.05;;
66667;SDS011;57205;51.438;-2.006;2023-07-02T13:31:39;8.00;;;2.28;;
66667;SDS011;57205;51.438;-2.006;2023-07-02T13:34:04;11.13;;;2.10;;
66667;SDS011;57205;51.438;-2.006;2023-07-02T13:36:30;9.18;;;2.05;;
66667;SDS011;57205;51.438;-2.006;2023-07-02T13:38:55;6.65;;;1.60;;
66667;SDS011;57205;51.438;-2.006;2023-07-02T13:41:21;9.20;;;2.33;;
66667;SDS011;57205;51.438;-2.006;2023-07-02T13:43:46;5.57;;;1.70;;
66667;SDS011;57205;51.438;-2.006;2023-07-02T13:46:13;12.98;;;2.15;;
66667;SDS011;57205;51.438;-2.006;2023-07-02T13:48:40;9.45;;;2.08;;
66667;SDS011;57205;51.438;-2.006;2023-07-02T13:53:50;8.02;;;2.05;;
66667;SDS011;57205;51.438;-2.006;2023-07-02T13:59:37;8.25;;;2.47;;
66667;SDS011;57205;51.438;-2.006;2023-07-02T14:02:03;10.30;;;2.78;;
66667;SDS011;57205;51.438;-2.006;2023-07-02T14:07:18;6.43;;;1.98;;
66667;SDS011;57205;51.438;-2.006;2023-07-02T14:09:44;8.27;;;2.30;;
66667;SDS011;57205;51.438;-2.006;2023-07-02T14:12:09;6.93;;;2.47;;
66667;SDS011;57205;51.438;-2.006;2023-07-02T14:14:35;8.82;;;2.40;;
66667;SDS011;57205;51.438;-2.006;2023-07-02T14:17:00;10.88;;;2.28;;
66667;SDS011;57205;51.438;-2.006;2023-07-02T14:19:26;8.43;;;2.33;;
66667;SDS011;57205;51.438;-2.006;2023-07-02T14:21:51;8.63;;;2.50;;
66667;SDS011;57205;51.438;-2.006;2023-07-02T14:24:16;8.15;;;2.17;;
66667;SDS011;57205;51.438;-2.006;2023-07-02T14:26:42;7.20;;;1.92;;
66667;SDS011;57205;51.438;-2.006;2023-07-02T14:29:09;6.22;;;2.05;;
66667;SDS011;57205;51.438;-2.006;2023-07-02T14:31:34;7.63;;;1.80;;
66667;SDS011;57205;51.438;-2.006;2023-07-02T14:33:59;7.45;;;1.98;;
66667;SDS011;57205;51.438;-2.006;2023-07-02T14:36:25;12.68;;;2.20;;
66667;SDS011;57205;51.438;-2.006;2023-07-02T14:38:50;8.15;;;3.10;;
66667;SDS011;57205;51.438;-2.006;2023-07-02T14:41:17;7.40;;;2.55;;
66667;SDS011;57205;51.438;-2.006;2023-07-02T14:43:42;7.10;;;1.85;;
66667;SDS011;57205;51.438;-2.006;2023-07-02T14:46:08;7.38;;;1.92;;
66667;SDS011;57205;51.438;-2.006;2023-07-02T14:48:33;8.52;;;2.30;;
66667;SDS011;57205;51.438;-2.006;2023-07-02T14:50:59;9.82;;;2.25;;
66667;SDS011;57205;51.438;-2.006;2023-07-02T14:53:26;8.05;;;2.50;;
66667;SDS011;57205;51.438;-2.006;2023-07-02T14:55:56;5.70;;;1.85;;
66667;SDS011;57205;51.438;-2.006;2023-07-02T14:58:24;10.80;;;2.10;;
66667;SDS011;57205;51.438;-2.006;2023-07-02T15:00:51;11.80;;;1.95;;
66667;SDS011;57205;51.438;-2.006;2023-07-02T15:03:19;14.45;;;2.85;;
66667;SDS011;57205;51.438;-2.006;2023-07-02T15:05:50;8.57;;;2.38;;
66667;SDS011;57205;51.438;-2.006;2023-07-02T15:08:16;9.98;;;2.22;;
66667;SDS011;57205;51.438;-2.006;2023-07-02T15:10:49;12.15;;;2.33;;
66667;SDS011;57205;51.438;-2.006;2023-07-02T15:13:16;7.88;;;1.92;;
66667;SDS011;57205;51.438;-2.006;2023-07-02T15:15:43;16.20;;;3.30;;
66667;SDS011;57205;51.438;-2.006;2023-07-02T15:18:09;7.88;;;2.50;;
66667;SDS011;57205;51.438;-2.006;2023-07-02T15:20:35;11.35;;;2.60;;
66667;SDS011;57205;51.438;-2.006;2023-07-02T15:23:04;10.30;;;2.05;;